createdAt,value
2018-03-25T00:00:18.736Z,994.48
2018-03-25T00:01:18.790Z,994.50
2018-03-25T00:02:18.752Z,994.48
2018-03-25T00:03:18.702Z,994.51
2018-03-25T00:04:18.767Z,994.50
2018-03-25T00:05:18.741Z,994.50
2018-03-25T00:06:18.676Z,994.49
2018-03-25T00:07:18.794Z,994.49
2018-03-25T00:08:18.706Z,994.46
2018-03-25T00:09:18.679Z,994.53
2018-03-25T00:10:18.799Z,994.49
2018-03-25T00:11:18.746Z,994.48
2018-03-25T00:12:18.746Z,994.50
2018-03-25T00:13:18.798Z,994.47
2018-03-25T00:14:18.784Z,994.47
2018-03-25T00:15:18.745Z,994.53
2018-03-25T00:16:18.679Z,994.46
2018-03-25T00:17:18.748Z,994.45
2018-03-25T00:18:18.747Z,994.48
2018-03-25T00:19:18.689Z,994.46
2018-03-25T00:20:18.720Z,994.51
2018-03-25T00:21:18.812Z,994.53
2018-03-25T00:22:18.749Z,994.51
2018-03-25T00:23:18.811Z,994.52
2018-03-25T00:24:18.805Z,994.54
2018-03-25T00:25:18.695Z,994.54
2018-03-25T00:26:18.716Z,994.54
2018-03-25T00:27:18.695Z,994.54
2018-03-25T00:28:18.812Z,994.55
2018-03-25T00:29:18.688Z,994.55
2018-03-25T00:30:18.694Z,994.53
2018-03-25T00:31:18.696Z,994.55
2018-03-25T00:32:18.803Z,994.55
2018-03-25T00:33:18.790Z,994.50
2018-03-25T00:34:18.722Z,994.53
2018-03-25T00:35:18.758Z,994.56
2018-03-25T00:36:18.812Z,994.55
2018-03-25T00:37:18.725Z,994.53
2018-03-25T00:38:18.790Z,994.54
2018-03-25T00:39:18.690Z,994.54
2018-03-25T00:40:18.704Z,994.56
2018-03-25T00:41:18.821Z,994.51
2018-03-25T00:42:18.870Z,994.52
2018-03-25T00:43:18.808Z,994.48
2018-03-25T00:44:18.767Z,994.55
2018-03-25T00:45:18.801Z,994.56
2018-03-25T00:46:18.707Z,994.54
2018-03-25T00:47:18.820Z,994.58
2018-03-25T00:48:18.791Z,994.55
2018-03-25T00:49:18.769Z,994.58
2018-03-25T00:50:18.706Z,994.56
2018-03-25T00:51:18.760Z,994.54
2018-03-25T00:52:18.691Z,994.54
2018-03-25T00:53:18.830Z,994.52
2018-03-25T00:54:18.733Z,994.51
2018-03-25T00:55:18.706Z,994.48
2018-03-25T00:56:18.818Z,994.51
2018-03-25T00:57:18.797Z,994.51
2018-03-25T00:58:18.775Z,994.53
2018-03-25T00:59:18.744Z,994.51
2018-03-25T01:00:18.821Z,994.52
2018-03-25T01:01:18.820Z,994.55
2018-03-25T01:02:18.781Z,994.53
2018-03-25T01:03:18.828Z,994.54
2018-03-25T01:04:18.805Z,994.52
2018-03-25T01:05:18.719Z,994.54
2018-03-25T01:06:18.713Z,994.57
2018-03-25T01:07:18.829Z,994.62
2018-03-25T01:08:18.804Z,994.59
2018-03-25T01:09:18.833Z,994.59
2018-03-25T01:10:18.727Z,994.60
2018-03-25T01:11:18.802Z,994.58
2018-03-25T01:12:18.776Z,994.60
2018-03-25T01:13:18.713Z,994.59
2018-03-25T01:14:18.833Z,994.60
2018-03-25T01:15:18.749Z,994.62
2018-03-25T01:16:18.812Z,994.55
2018-03-25T01:17:18.751Z,994.59
2018-03-25T01:18:18.844Z,994.56
2018-03-25T01:19:18.758Z,994.58
2018-03-25T01:20:18.842Z,994.55
2018-03-25T01:21:18.844Z,994.57
2018-03-25T01:22:18.790Z,994.51
2018-03-25T01:23:18.721Z,994.57
2018-03-25T01:24:18.732Z,994.52
2018-03-25T01:25:18.840Z,994.54
2018-03-25T01:26:18.795Z,994.50
2018-03-25T01:27:18.749Z,994.55
2018-03-25T01:28:18.816Z,994.49
2018-03-25T01:29:18.791Z,994.54
2018-03-25T01:30:18.851Z,994.52
2018-03-25T01:31:18.794Z,994.53
2018-03-25T01:32:18.754Z,994.51
2018-03-25T01:33:18.735Z,994.51
2018-03-25T01:34:18.857Z,994.53
2018-03-25T01:35:18.802Z,994.56
2018-03-25T01:36:18.800Z,994.57
2018-03-25T01:37:18.858Z,994.55
2018-03-25T01:38:18.803Z,994.59
2018-03-25T01:39:18.846Z,994.56
2018-03-25T01:40:18.759Z,994.58
2018-03-25T01:41:18.801Z,994.59
2018-03-25T01:42:18.800Z,994.60
2018-03-25T01:43:18.865Z,994.62
2018-03-25T01:44:18.852Z,994.58
2018-03-25T01:45:18.793Z,994.63
2018-03-25T01:46:18.807Z,994.58
2018-03-25T01:47:18.769Z,994.54
2018-03-25T01:48:18.862Z,994.58
2018-03-25T01:49:18.928Z,994.62
2018-03-25T01:50:18.862Z,994.57
2018-03-25T01:51:18.741Z,994.58
2018-03-25T01:52:18.864Z,994.59
2018-03-25T01:53:18.768Z,994.61
2018-03-25T01:54:18.741Z,994.61
2018-03-25T01:55:18.742Z,994.57
2018-03-25T01:56:18.793Z,994.59
2018-03-25T01:57:18.857Z,994.55
2018-03-25T01:58:18.772Z,994.56
2018-03-25T01:59:18.859Z,994.57
2018-03-25T02:00:18.812Z,994.58
2018-03-25T02:01:18.769Z,994.58
2018-03-25T02:02:18.749Z,994.59
2018-03-25T02:03:18.866Z,994.59
2018-03-25T02:04:18.870Z,994.56
2018-03-25T02:05:18.745Z,994.57
2018-03-25T02:06:18.775Z,994.56
2018-03-25T02:07:18.755Z,994.55
2018-03-25T02:08:18.874Z,994.50
2018-03-25T02:09:18.871Z,994.51
2018-03-25T02:10:18.780Z,994.53
2018-03-25T02:11:18.752Z,994.52
2018-03-25T02:12:18.867Z,994.54
2018-03-25T02:13:18.757Z,994.48
2018-03-25T02:14:18.780Z,994.52
2018-03-25T02:15:18.869Z,994.52
2018-03-25T02:16:18.879Z,994.51
2018-03-25T02:17:18.761Z,994.49
2018-03-25T02:18:18.848Z,994.51
2018-03-25T02:19:18.761Z,994.53
2018-03-25T02:20:18.811Z,994.49
2018-03-25T02:21:18.762Z,994.49
2018-03-25T02:22:18.787Z,994.50
2018-03-25T02:24:18.881Z,994.54
2018-03-25T02:25:18.762Z,994.55
2018-03-25T02:26:18.830Z,994.53
2018-03-25T02:27:18.882Z,994.56
2018-03-25T02:28:18.874Z,994.54
2018-03-25T02:29:18.884Z,994.55
2018-03-25T02:30:18.828Z,994.56
2018-03-25T02:31:18.770Z,994.57
2018-03-25T02:32:18.797Z,994.55
2018-03-25T02:33:18.835Z,994.53
2018-03-25T02:34:18.891Z,994.55
2018-03-25T02:35:18.770Z,994.58
2018-03-25T02:36:18.794Z,994.59
2018-03-25T02:37:18.891Z,994.58
2018-03-25T02:38:18.775Z,994.56
2018-03-25T02:39:18.799Z,994.59
2018-03-25T02:40:18.769Z,994.61
2018-03-25T02:41:18.771Z,994.61
2018-03-25T02:42:18.800Z,994.58
2018-03-25T02:43:18.781Z,994.62
2018-03-25T02:44:18.894Z,994.55
2018-03-25T02:45:18.887Z,994.65
2018-03-25T02:46:18.799Z,994.67
2018-03-25T02:47:18.774Z,994.65
2018-03-25T02:48:18.892Z,994.68
2018-03-25T02:49:18.897Z,994.66
2018-03-25T02:50:18.810Z,994.64
2018-03-25T02:51:18.813Z,994.67
2018-03-25T02:52:18.895Z,994.67
2018-03-25T02:53:18.872Z,994.67
2018-03-25T02:54:18.853Z,994.66
2018-03-25T02:55:18.775Z,994.64
2018-03-25T02:56:18.812Z,994.65
2018-03-25T02:57:18.903Z,994.72
2018-03-25T02:58:18.823Z,994.68
2018-03-25T02:59:18.902Z,994.70
2018-03-25T03:00:18.875Z,994.73
2018-03-25T03:01:18.917Z,994.71
2018-03-25T03:02:18.852Z,994.73
2018-03-25T03:03:18.787Z,994.72
2018-03-25T03:04:18.880Z,994.70
2018-03-25T03:05:18.877Z,994.75
2018-03-25T03:06:18.878Z,994.68
2018-03-25T03:07:18.852Z,994.67
2018-03-25T03:08:18.908Z,994.73
2018-03-25T03:09:18.856Z,994.74
2018-03-25T03:10:18.821Z,994.74
2018-03-25T03:11:18.819Z,994.74
2018-03-25T03:12:18.881Z,994.78
2018-03-25T03:13:18.901Z,994.76
2018-03-25T03:14:18.861Z,994.78
2018-03-25T03:15:18.796Z,994.78
2018-03-25T03:16:18.799Z,994.81
2018-03-25T03:17:18.885Z,994.77
2018-03-25T03:18:18.860Z,994.80
2018-03-25T03:19:18.916Z,994.80
2018-03-25T03:20:18.794Z,994.81
2018-03-25T03:21:18.855Z,994.83
2018-03-25T03:22:18.797Z,994.82
2018-03-25T03:23:18.886Z,994.85
2018-03-25T03:24:18.912Z,994.84
2018-03-25T03:25:18.908Z,994.81
2018-03-25T03:26:18.804Z,994.83
2018-03-25T03:27:18.922Z,994.85
2018-03-25T03:28:18.866Z,994.83
2018-03-25T03:29:18.869Z,994.88
2018-03-25T03:30:18.897Z,994.86
2018-03-25T03:31:18.942Z,994.88
2018-03-25T03:32:18.915Z,994.90
2018-03-25T03:33:18.828Z,994.91
2018-03-25T03:34:18.866Z,994.94
2018-03-25T03:35:18.924Z,994.88
2018-03-25T03:36:18.807Z,994.92
2018-03-25T03:37:18.839Z,994.94
2018-03-25T03:38:18.845Z,994.90
2018-03-25T03:39:18.840Z,994.94
2018-03-25T03:40:18.814Z,994.98
2018-03-25T03:41:18.928Z,994.99
2018-03-25T03:42:18.841Z,994.96
2018-03-25T03:43:18.885Z,994.96
2018-03-25T03:44:18.930Z,994.95
2018-03-25T03:45:18.815Z,994.97
2018-03-25T03:46:18.844Z,994.94
2018-03-25T03:47:18.888Z,995.00
2018-03-25T03:48:18.823Z,994.99
2018-03-25T03:49:18.933Z,995.00
2018-03-25T03:50:18.818Z,994.99
2018-03-25T03:51:18.941Z,995.01
2018-03-25T03:52:18.840Z,995.03
2018-03-25T03:53:18.818Z,995.03
2018-03-25T03:54:18.813Z,994.99
2018-03-25T03:55:18.846Z,994.99
2018-03-25T03:56:18.817Z,995.04
2018-03-25T03:57:18.851Z,995.05
2018-03-25T03:58:18.914Z,995.04
2018-03-25T03:59:18.940Z,995.01
2018-03-25T04:00:18.912Z,995.01
2018-03-25T04:01:18.862Z,995.03
2018-03-25T04:02:18.820Z,995.03
2018-03-25T04:03:18.853Z,995.06
2018-03-25T04:04:18.856Z,995.05
2018-03-25T04:05:18.954Z,995.07
2018-03-25T04:06:18.892Z,995.07
2018-03-25T04:07:18.939Z,995.06
2018-03-25T04:08:18.942Z,995.07
2018-03-25T04:09:18.829Z,995.08
2018-03-25T04:10:18.936Z,995.08
2018-03-25T04:11:18.828Z,995.12
2018-03-25T04:12:18.945Z,995.11
2018-03-25T04:13:18.947Z,995.18
2018-03-25T04:14:18.954Z,995.14
2018-03-25T04:15:18.861Z,995.16
2018-03-25T04:16:18.832Z,995.16
2018-03-25T04:17:18.941Z,995.13
2018-03-25T04:18:18.956Z,995.16
2018-03-25T04:19:18.955Z,995.15
2018-03-25T04:20:18.859Z,995.16
2018-03-25T04:21:18.832Z,995.14
2018-03-25T04:22:18.872Z,995.19
2018-03-25T04:23:18.872Z,995.17
2018-03-25T04:24:18.898Z,995.20
2018-03-25T04:25:18.957Z,995.21
2018-03-25T04:26:18.835Z,995.23
2018-03-25T04:27:18.953Z,995.24
2018-03-25T04:28:18.863Z,995.23
2018-03-25T04:29:18.836Z,995.22
2018-03-25T04:30:18.908Z,995.20
2018-03-25T04:31:18.870Z,995.22
2018-03-25T04:32:18.840Z,995.20
2018-03-25T04:33:18.868Z,995.20
2018-03-25T04:34:18.911Z,995.21
2018-03-25T04:35:18.868Z,995.24
2018-03-25T04:36:18.954Z,995.27
2018-03-25T04:37:18.960Z,995.22
2018-03-25T04:38:18.881Z,995.24
2018-03-25T04:39:18.920Z,995.23
2018-03-25T04:40:18.905Z,995.22
2018-03-25T04:41:18.844Z,995.24
2018-03-25T04:42:18.913Z,995.23
2018-03-25T04:43:18.848Z,995.26
2018-03-25T04:44:18.849Z,995.23
2018-03-25T04:45:18.879Z,995.25
2018-03-25T04:46:18.882Z,995.27
2018-03-25T04:47:18.975Z,995.23
2018-03-25T04:48:18.898Z,995.30
2018-03-25T04:49:18.913Z,995.25
2018-03-25T04:50:18.848Z,995.30
2018-03-25T04:51:18.949Z,995.26
2018-03-25T04:52:18.939Z,995.28
2018-03-25T04:53:18.863Z,995.28
2018-03-25T04:54:18.846Z,995.28
2018-03-25T04:55:18.917Z,995.27
2018-03-25T04:56:18.879Z,995.27
2018-03-25T04:57:18.881Z,995.30
2018-03-25T04:58:18.973Z,995.29
2018-03-25T04:59:18.985Z,995.26
2018-03-25T05:00:18.971Z,995.30
2018-03-25T05:01:18.970Z,995.26
2018-03-25T05:02:18.966Z,995.24
2018-03-25T05:03:18.891Z,995.26
2018-03-25T05:04:18.860Z,995.27
2018-03-25T05:05:18.890Z,995.29
2018-03-25T05:06:18.867Z,995.25
2018-03-25T05:07:18.969Z,995.29
2018-03-25T05:08:18.952Z,995.32
2018-03-25T05:09:18.930Z,995.28
2018-03-25T05:10:18.890Z,995.27
2018-03-25T05:11:18.897Z,995.26
2018-03-25T05:12:18.890Z,995.25
2018-03-25T05:13:18.933Z,995.30
2018-03-25T05:14:18.893Z,995.30
2018-03-25T05:15:18.870Z,995.30
2018-03-25T05:16:18.979Z,995.28
2018-03-25T05:17:18.983Z,995.31
2018-03-25T05:18:18.932Z,995.26
2018-03-25T05:19:18.979Z,995.26
2018-03-25T05:20:18.992Z,995.29
2018-03-25T05:21:18.895Z,995.30
2018-03-25T05:22:18.893Z,995.33
2018-03-25T05:23:18.980Z,995.36
2018-03-25T05:24:18.963Z,995.34
2018-03-25T05:25:18.988Z,995.37
2018-03-25T05:26:18.961Z,995.36
2018-03-25T05:27:18.945Z,995.41
2018-03-25T05:28:18.990Z,995.39
2018-03-25T05:29:18.874Z,995.39
2018-03-25T05:30:18.957Z,995.40
2018-03-25T05:31:18.876Z,995.43
2018-03-25T05:32:18.948Z,995.39
2018-03-25T05:33:18.966Z,995.40
2018-03-25T05:34:18.936Z,995.46
2018-03-25T05:35:18.943Z,995.46
2018-03-25T05:36:18.885Z,995.45
2018-03-25T05:37:18.989Z,995.44
2018-03-25T05:38:18.912Z,995.41
2018-03-25T05:39:18.900Z,995.46
2018-03-25T05:40:18.935Z,995.46
2018-03-25T05:41:18.888Z,995.47
2018-03-25T05:42:18.881Z,995.45
2018-03-25T05:43:18.915Z,995.49
2018-03-25T05:44:18.904Z,995.50
2018-03-25T05:45:18.995Z,995.47
2018-03-25T05:46:18.909Z,995.54
2018-03-25T05:47:18.977Z,995.51
2018-03-25T05:48:18.884Z,995.53
2018-03-25T05:49:18.998Z,995.53
2018-03-25T05:50:19.005Z,995.53
2018-03-25T05:51:18.889Z,995.55
2018-03-25T05:52:18.976Z,995.61
2018-03-25T05:53:18.889Z,995.56
2018-03-25T05:54:18.910Z,995.58
2018-03-25T05:55:18.997Z,995.60
2018-03-25T05:56:19.003Z,995.60
2018-03-25T05:57:18.957Z,995.63
2018-03-25T05:58:19.008Z,995.67
2018-03-25T05:59:19.002Z,995.67
2018-03-25T06:00:18.883Z,995.68
2018-03-25T06:01:18.912Z,995.70
2018-03-25T06:02:19.007Z,995.78
2018-03-25T06:03:19.015Z,995.76
2018-03-25T06:04:18.925Z,995.73
2018-03-25T06:05:18.891Z,995.76
2018-03-25T06:06:19.012Z,995.80
2018-03-25T06:07:18.918Z,995.79
2018-03-25T06:08:18.890Z,995.84
2018-03-25T06:09:18.929Z,995.75
2018-03-25T06:10:18.966Z,995.83
2018-03-25T06:11:18.896Z,995.85
2018-03-25T06:12:19.017Z,995.84
2018-03-25T06:13:19.006Z,995.82
2018-03-25T06:14:18.896Z,995.83
2018-03-25T06:15:19.017Z,995.84
2018-03-25T06:16:19.009Z,995.86
2018-03-25T06:17:18.899Z,995.87
2018-03-25T06:18:18.994Z,995.91
2018-03-25T06:19:18.995Z,995.94
2018-03-25T06:20:18.903Z,995.91
2018-03-25T06:21:18.941Z,995.92
2018-03-25T06:22:18.939Z,995.89
2018-03-25T06:23:18.906Z,995.92
2018-03-25T06:24:18.961Z,995.95
2018-03-25T06:25:18.901Z,995.92
2018-03-25T06:26:18.906Z,995.95
2018-03-25T06:27:18.940Z,995.94
2018-03-25T06:28:19.026Z,995.98
2018-03-25T06:29:18.902Z,996.00
2018-03-25T06:30:19.018Z,996.02
2018-03-25T06:31:18.966Z,996.01
2018-03-25T06:32:18.910Z,995.99
2018-03-25T06:33:19.006Z,996.00
2018-03-25T06:34:18.944Z,996.01
2018-03-25T06:35:18.946Z,996.03
2018-03-25T06:36:18.946Z,996.08
2018-03-25T06:37:18.918Z,996.08
2018-03-25T06:38:18.940Z,996.13
2018-03-25T06:39:18.919Z,996.13
2018-03-25T06:40:18.976Z,996.15
2018-03-25T06:41:18.911Z,996.19
2018-03-25T06:42:19.039Z,996.12
2018-03-25T06:43:18.978Z,996.14
2018-03-25T06:44:19.012Z,996.16
2018-03-25T06:45:19.041Z,996.18
2018-03-25T06:46:18.947Z,996.21
2018-03-25T06:47:18.913Z,996.22
2018-03-25T06:48:19.011Z,996.23
2018-03-25T06:49:18.985Z,996.19
2018-03-25T06:50:18.983Z,996.19
2018-03-25T06:51:18.955Z,996.27
2018-03-25T06:52:19.033Z,996.23
2018-03-25T06:53:19.037Z,996.24
2018-03-25T06:54:18.989Z,996.25
2018-03-25T06:55:19.035Z,996.25
2018-03-25T06:56:19.018Z,996.29
2018-03-25T06:57:19.039Z,996.29
2018-03-25T06:58:18.922Z,996.32
2018-03-25T06:59:18.933Z,996.33
2018-03-25T07:00:19.072Z,996.30
2018-03-25T07:01:18.996Z,996.32
2018-03-25T07:02:19.013Z,996.35
2018-03-25T07:03:19.042Z,996.32
2018-03-25T07:04:18.997Z,996.35
2018-03-25T07:05:19.023Z,996.36
2018-03-25T07:06:19.017Z,996.33
2018-03-25T07:07:19.017Z,996.30
2018-03-25T07:08:18.953Z,996.35
2018-03-25T07:09:18.967Z,996.37
2018-03-25T07:10:19.052Z,996.41
2018-03-25T07:11:19.027Z,996.39
2018-03-25T07:12:18.936Z,996.41
2018-03-25T07:13:18.945Z,996.40
2018-03-25T07:14:19.029Z,996.43
2018-03-25T07:15:19.021Z,996.45
2018-03-25T07:16:19.008Z,996.47
2018-03-25T07:17:18.937Z,996.45
2018-03-25T07:18:19.000Z,996.48
2018-03-25T07:19:19.028Z,996.51
2018-03-25T07:20:18.972Z,996.52
2018-03-25T07:21:18.936Z,996.53
2018-03-25T07:22:18.966Z,996.55
2018-03-25T07:23:19.061Z,996.56
2018-03-25T07:24:19.061Z,996.57
2018-03-25T07:25:18.963Z,996.57
2018-03-25T07:26:19.004Z,996.56
2018-03-25T07:27:19.055Z,996.62
2018-03-25T07:28:19.054Z,996.61
2018-03-25T07:29:19.030Z,996.68
2018-03-25T07:30:18.965Z,996.67
2018-03-25T07:31:18.941Z,996.68
2018-03-25T07:32:19.030Z,996.73
2018-03-25T07:33:18.975Z,996.74
2018-03-25T07:34:18.974Z,996.75
2018-03-25T07:35:19.045Z,996.72
2018-03-25T07:36:19.037Z,996.72
2018-03-25T07:37:18.948Z,996.72
2018-03-25T07:38:18.967Z,996.72
2018-03-25T07:39:19.069Z,996.72
2018-03-25T07:40:19.007Z,996.70
2018-03-25T07:41:19.041Z,996.75
2018-03-25T07:42:18.948Z,996.76
2018-03-25T07:43:18.960Z,996.78
2018-03-25T07:44:19.063Z,996.79
2018-03-25T07:45:19.072Z,996.77
2018-03-25T07:46:18.948Z,996.74
2018-03-25T07:47:19.019Z,996.76
2018-03-25T07:48:18.965Z,996.79
2018-03-25T07:49:18.951Z,996.71
2018-03-25T07:50:18.959Z,996.80
2018-03-25T07:51:19.044Z,996.77
2018-03-25T07:52:18.990Z,996.80
2018-03-25T07:53:18.964Z,996.82
2018-03-25T07:54:19.078Z,996.78
2018-03-25T07:55:18.992Z,996.80
2018-03-25T07:56:19.028Z,996.83
2018-03-25T07:57:19.014Z,996.83
2018-03-25T07:58:19.054Z,996.89
2018-03-25T07:59:18.986Z,996.87
2018-03-25T08:00:19.053Z,996.90
2018-03-25T08:01:19.057Z,996.88
2018-03-25T08:02:18.975Z,996.89
2018-03-25T08:03:19.057Z,996.83
2018-03-25T08:04:19.025Z,996.81
2018-03-25T08:05:18.986Z,996.80
2018-03-25T08:06:18.957Z,996.84
2018-03-25T08:07:19.088Z,996.79
2018-03-25T08:08:19.084Z,996.81
2018-03-25T08:09:19.060Z,996.81
2018-03-25T08:10:19.025Z,996.81
2018-03-25T08:11:19.098Z,996.85
2018-03-25T08:12:19.034Z,996.86
2018-03-25T08:13:18.999Z,996.87
2018-03-25T08:14:19.029Z,996.88
2018-03-25T08:15:18.978Z,996.89
2018-03-25T08:16:19.080Z,996.88
2018-03-25T08:17:19.061Z,996.91
2018-03-25T08:18:19.060Z,996.90
2018-03-25T08:19:19.061Z,996.92
2018-03-25T08:20:18.975Z,996.92
2018-03-25T08:21:19.069Z,996.89
2018-03-25T08:22:18.975Z,996.86
2018-03-25T08:23:19.004Z,996.88
2018-03-25T08:24:19.095Z,996.88
2018-03-25T08:25:18.984Z,996.91
2018-03-25T08:26:19.065Z,996.93
2018-03-25T08:27:19.008Z,996.93
2018-03-25T08:28:19.125Z,996.91
2018-03-25T08:29:19.106Z,996.92
2018-03-25T08:30:19.047Z,996.93
2018-03-25T08:31:19.044Z,996.96
2018-03-25T08:32:18.978Z,996.92
2018-03-25T08:33:19.045Z,996.96
2018-03-25T08:34:19.096Z,996.95
2018-03-25T08:35:19.076Z,996.98
2018-03-25T08:36:19.040Z,996.96
2018-03-25T08:37:19.005Z,996.96
2018-03-25T08:38:19.073Z,996.97
2018-03-25T08:39:19.103Z,996.97
2018-03-25T08:40:19.074Z,996.97
2018-03-25T08:41:19.105Z,996.98
2018-03-25T08:42:19.014Z,996.97
2018-03-25T08:43:18.994Z,996.97
2018-03-25T08:44:18.983Z,996.93
2018-03-25T08:45:19.058Z,996.96
2018-03-25T08:46:19.055Z,997.00
2018-03-25T08:47:19.019Z,996.99
2018-03-25T08:48:19.076Z,996.99
2018-03-25T08:49:18.999Z,996.92
2018-03-25T08:50:19.002Z,996.94
2018-03-25T08:51:19.062Z,996.91
2018-03-25T08:52:19.104Z,996.93
2018-03-25T08:53:19.022Z,996.94
2018-03-25T08:54:19.066Z,996.90
2018-03-25T08:55:18.992Z,996.90
2018-03-25T08:56:19.112Z,996.93
2018-03-25T08:57:19.028Z,996.93
2018-03-25T08:58:19.082Z,996.90
2018-03-25T08:59:19.027Z,996.88
2018-03-25T09:00:19.111Z,996.86
2018-03-25T09:01:19.055Z,996.85
2018-03-25T09:02:19.006Z,996.84
2018-03-25T09:03:19.067Z,996.84
2018-03-25T09:04:19.070Z,996.89
2018-03-25T09:05:19.059Z,996.87
2018-03-25T09:06:19.064Z,996.85
2018-03-25T09:07:19.008Z,996.83
2018-03-25T09:08:19.094Z,996.84
2018-03-25T09:09:19.114Z,996.85
2018-03-25T09:10:19.026Z,996.82
2018-03-25T09:11:19.032Z,996.83
2018-03-25T09:12:19.120Z,996.83
2018-03-25T09:13:19.036Z,996.85
2018-03-25T09:14:19.119Z,996.84
2018-03-25T09:15:19.121Z,996.84
2018-03-25T09:16:19.094Z,996.84
2018-03-25T09:17:19.013Z,996.83
2018-03-25T09:18:19.128Z,996.89
2018-03-25T09:19:19.009Z,996.81
2018-03-25T09:20:19.077Z,996.83
2018-03-25T09:21:19.018Z,996.82
2018-03-25T09:22:19.101Z,996.82
2018-03-25T09:23:19.037Z,996.85
2018-03-25T09:24:19.010Z,996.84
2018-03-25T09:25:19.073Z,996.82
2018-03-25T09:26:19.126Z,996.84
2018-03-25T09:27:19.104Z,996.85
2018-03-25T09:28:19.131Z,996.82
2018-03-25T09:29:19.013Z,996.82
2018-03-25T09:30:19.069Z,996.84
2018-03-25T09:31:19.053Z,996.81
2018-03-25T09:32:19.071Z,996.82
2018-03-25T09:33:19.028Z,996.83
2018-03-25T09:34:19.105Z,996.83
2018-03-25T09:35:19.103Z,996.85
2018-03-25T09:36:19.082Z,996.85
2018-03-25T09:37:19.083Z,996.85
2018-03-25T09:38:19.107Z,996.84
2018-03-25T09:39:19.132Z,996.84
2018-03-25T09:40:19.046Z,996.89
2018-03-25T09:41:19.134Z,996.88
2018-03-25T09:42:19.024Z,996.89
2018-03-25T09:43:19.087Z,996.87
2018-03-25T09:44:19.116Z,996.83
2018-03-25T09:45:19.033Z,996.89
2018-03-25T09:46:19.095Z,996.88
2018-03-25T09:47:19.060Z,996.87
2018-03-25T09:48:19.034Z,996.88
2018-03-25T09:49:19.142Z,996.86
2018-03-25T09:50:19.117Z,996.87
2018-03-25T09:51:19.145Z,996.87
2018-03-25T09:52:19.037Z,996.89
2018-03-25T09:53:19.150Z,996.87
2018-03-25T09:54:19.066Z,996.90
2018-03-25T09:55:19.149Z,996.90
2018-03-25T09:56:19.061Z,996.91
2018-03-25T09:57:19.145Z,996.91
2018-03-25T09:58:19.121Z,996.90
2018-03-25T09:59:19.065Z,996.92
2018-03-25T10:00:19.030Z,996.93
2018-03-25T10:01:19.165Z,996.92
2018-03-25T10:02:19.060Z,996.93
2018-03-25T10:03:19.154Z,996.91
2018-03-25T10:04:19.159Z,996.87
2018-03-25T10:05:19.100Z,996.85
2018-03-25T10:06:19.159Z,996.82
2018-03-25T10:07:19.063Z,996.83
2018-03-25T10:08:19.032Z,996.86
2018-03-25T10:09:19.068Z,996.82
2018-03-25T10:10:19.164Z,996.82
2018-03-25T10:11:19.153Z,996.81
2018-03-25T10:12:19.130Z,996.79
2018-03-25T10:13:19.074Z,996.80
2018-03-25T10:14:19.048Z,996.79
2018-03-25T10:15:19.038Z,996.81
2018-03-25T10:16:19.117Z,996.81
2018-03-25T10:17:19.162Z,996.78
2018-03-25T10:18:19.045Z,996.78
2018-03-25T10:19:19.138Z,996.77
2018-03-25T10:20:19.162Z,996.77
2018-03-25T10:21:19.119Z,996.74
2018-03-25T10:22:19.080Z,996.73
2018-03-25T10:23:19.114Z,996.77
2018-03-25T10:24:19.077Z,996.77
2018-03-25T10:25:19.114Z,996.83
2018-03-25T10:26:19.084Z,996.81
2018-03-25T10:27:19.082Z,996.80
2018-03-25T10:28:19.083Z,996.80
2018-03-25T10:29:19.083Z,996.84
2018-03-25T10:30:19.112Z,996.84
2018-03-25T10:31:19.078Z,996.86
2018-03-25T10:32:19.177Z,996.83
2018-03-25T10:33:19.088Z,996.83
2018-03-25T10:34:19.087Z,996.85
2018-03-25T10:35:19.084Z,996.82
2018-03-25T10:36:19.125Z,996.84
2018-03-25T10:37:19.126Z,996.84
2018-03-25T10:38:19.055Z,996.81
2018-03-25T10:39:19.091Z,996.87
2018-03-25T10:40:19.149Z,996.83
2018-03-25T10:41:19.178Z,996.86
2018-03-25T10:42:19.165Z,996.87
2018-03-25T10:43:19.176Z,996.79
2018-03-25T10:44:19.090Z,996.81
2018-03-25T10:45:19.150Z,996.81
2018-03-25T10:46:19.056Z,996.82
2018-03-25T10:47:19.069Z,996.82
2018-03-25T10:48:19.126Z,996.83
2018-03-25T10:49:19.088Z,996.79
2018-03-25T10:50:19.065Z,996.79
2018-03-25T10:51:19.186Z,996.77
2018-03-25T10:52:19.188Z,996.78
2018-03-25T10:53:19.072Z,996.81
2018-03-25T10:54:19.093Z,996.80
2018-03-25T10:55:19.074Z,996.78
2018-03-25T10:56:19.158Z,996.78
2018-03-25T10:57:19.188Z,996.78
2018-03-25T10:58:19.203Z,996.77
2018-03-25T10:59:19.070Z,996.78
2018-03-25T11:00:19.163Z,996.75
2018-03-25T11:01:19.186Z,996.79
2018-03-25T11:02:19.184Z,996.79
2018-03-25T11:03:19.081Z,996.80
2018-03-25T11:04:19.101Z,996.76
2018-03-25T11:05:19.193Z,996.76
2018-03-25T11:06:19.193Z,996.78
2018-03-25T11:07:19.135Z,996.76
2018-03-25T11:08:19.072Z,996.78
2018-03-25T11:09:19.108Z,996.76
2018-03-25T11:10:19.198Z,996.78
2018-03-25T11:11:19.161Z,996.80
2018-03-25T11:12:19.071Z,996.75
2018-03-25T11:13:19.086Z,996.76
2018-03-25T11:14:19.090Z,996.78
2018-03-25T11:15:19.079Z,996.76
2018-03-25T11:16:19.087Z,996.76
2018-03-25T11:17:19.116Z,996.78
2018-03-25T11:18:19.086Z,996.76
2018-03-25T11:19:19.177Z,996.78
2018-03-25T11:20:19.080Z,996.80
2018-03-25T11:21:19.172Z,996.77
2018-03-25T11:22:19.085Z,996.74
2018-03-25T11:23:19.082Z,996.76
2018-03-25T11:24:19.116Z,996.74
2018-03-25T11:25:19.110Z,996.73
2018-03-25T11:26:19.080Z,996.73
2018-03-25T11:27:19.111Z,996.75
2018-03-25T11:28:19.118Z,996.76
2018-03-25T11:29:19.150Z,996.77
2018-03-25T11:30:19.180Z,996.76
2018-03-25T11:31:19.149Z,996.80
2018-03-25T11:32:19.181Z,996.73
2018-03-25T11:33:19.206Z,996.77
2018-03-25T11:34:19.154Z,996.76
2018-03-25T11:35:19.118Z,996.78
2018-03-25T11:36:19.177Z,996.76
2018-03-25T11:37:19.131Z,996.73
2018-03-25T11:38:19.161Z,996.77
2018-03-25T11:39:19.123Z,996.72
2018-03-25T11:40:19.183Z,996.76
2018-03-25T11:41:19.158Z,996.74
2018-03-25T11:42:19.213Z,996.68
2018-03-25T11:43:19.182Z,996.67
2018-03-25T11:44:19.165Z,996.70
2018-03-25T11:45:19.097Z,996.68
2018-03-25T11:46:19.158Z,996.69
2018-03-25T11:47:19.122Z,996.69
2018-03-25T11:48:19.106Z,996.70
2018-03-25T11:49:19.161Z,996.71
2018-03-25T11:50:19.213Z,996.75
2018-03-25T11:51:19.110Z,996.76
2018-03-25T11:52:19.191Z,996.75
2018-03-25T11:53:19.110Z,996.74
2018-03-25T11:54:19.112Z,996.73
2018-03-25T11:55:19.138Z,996.76
2018-03-25T11:56:19.195Z,996.73
2018-03-25T11:57:19.223Z,996.73
2018-03-25T11:58:19.116Z,996.74
2018-03-25T11:59:19.217Z,996.77
2018-03-25T12:00:19.193Z,996.68
2018-03-25T12:01:19.232Z,996.72
2018-03-25T12:02:19.228Z,996.70
2018-03-25T12:03:19.169Z,996.76
2018-03-25T12:04:19.202Z,996.75
2018-03-25T12:05:19.225Z,996.70
2018-03-25T12:06:19.199Z,996.77
2018-03-25T12:07:19.201Z,996.76
2018-03-25T12:08:19.226Z,996.75
2018-03-25T12:09:19.140Z,996.75
2018-03-25T12:10:19.145Z,996.79
2018-03-25T12:11:19.109Z,996.74
2018-03-25T12:12:19.120Z,996.79
2018-03-25T12:13:19.206Z,996.74
2018-03-25T12:14:19.235Z,996.74
2018-03-25T12:15:19.139Z,996.75
2018-03-25T12:16:19.157Z,996.75
2018-03-25T12:17:19.236Z,996.72
2018-03-25T12:18:19.211Z,996.76
2018-03-25T12:19:19.211Z,996.74
2018-03-25T12:20:19.117Z,996.75
2018-03-25T12:21:19.235Z,996.78
2018-03-25T12:22:19.117Z,996.77
2018-03-25T12:23:19.191Z,996.72
2018-03-25T12:24:19.153Z,996.74
2018-03-25T12:25:19.145Z,996.73
2018-03-25T12:26:19.209Z,996.73
2018-03-25T12:27:19.183Z,996.75
2018-03-25T12:28:19.194Z,996.72
2018-03-25T12:29:19.122Z,996.72